Airfield :
LOGIN :

Register | Disclaimer

   EN    FR    IT 

 










Legend :    VFR   Marginal VFR   IFR   Intensive IFR   Very Intensive IFR
Visi :
Ceiling :
>= 8 km
>= 3000ft
5 to 8 km
1000 to 3000 ft
1500m to 5 km
500 to 1000 ft
800 to 1500m
200 to 500 ft
< 800m
< 200 ft
Symbols :   Thunderstorms  Fog  Heavy snow  Heavy precipitations  Wind > 20 kt
SIGMETs :     Misc.  Thunderstorms  Icing  Turbulence  Mountain Waves  Volcanic Ashes







- Airport Elevation : 36 ft
- IATA code : LTQ
- Download approach charts


LFAT - Le Touquet

CURRENT METAR :
  • 211730Z AUTO 26017G32KT 230V290 9999 BKN036 BKN050 BKN066 16/09 Q1015 BECMG 25012KT

EXPIRED METARs :
  • 211700Z AUTO 26016G30KT 220V310 9999 BKN038 BKN046 OVC058 16/08 Q1015 BECMG 25012KT
  • 211630Z AUTO 26017G28KT 220V300 9999 SCT037 BKN045 BKN054 16/08 Q1015 BECMG 25012KT
  • 211600Z AUTO 26017G29KT 220V300 9999 BKN041 BKN060 17/08 Q1015 NOSIG
  • 211530Z AUTO 26017G32KT 230V300 9999 BKN041 BKN054 16/08 Q1014 NOSIG
  • 211500Z AUTO 26018G32KT 220V290 9999 SCT041 BKN047 BKN060 17/08 Q1014 NOSIG

TAF TAF LFAT
Valid from the 21 at 15:00 until the 22 at 00:00 UTC


211400Z 2115/2124 27017G27KT 9999 SCT040
BECMG 2118/2121 25012KT
ATIS : +33 3 21 06 62 84
No reported NOTAMs for that airfield.
1 SIGMET reported for the Paris FIR (LFFF) :
 
Severe turbulence
LFFF SIGMET 3 VALID 211600/211900 LFPW
LFFF PARIS FIR/UIR SEV TURB FCST N OF LINE N5000 E00500 - N4930 W00015 FL160/260 MOV E 20KT NC=



MET'MAP, your aeronautical weather chart ! - Copyright ORBIFLY December 2007 - Disclaimer

ORBIFLY MET'MAP TEAM :

Programming & Development : Alexandra Zaïnal
Concept & Development : Baudouin d'Aumeries
Co-Development & Prog : Marc-Olivier Méhu
Technical & hardware support : Manuel Goepfert

Contact : metmap@orbifly.com




SOURCES & CREDITS :

   NOAA